createdAt,value
2023-02-03T00:01:06.892Z,85.67
2023-02-03T00:03:34.462Z,85.69
2023-02-03T00:06:03.248Z,86.09
2023-02-03T00:08:32.653Z,86.21
2023-02-03T00:11:00.867Z,85.71
2023-02-03T00:13:28.379Z,85.33
2023-02-03T00:15:55.871Z,86.12
2023-02-03T00:18:23.347Z,85.14
2023-02-03T00:20:50.819Z,85.62
2023-02-03T00:23:18.343Z,86.78
2023-02-03T00:25:47.333Z,86.10
2023-02-03T00:28:14.853Z,85.93
2023-02-03T00:30:42.387Z,85.29
2023-02-03T00:33:09.905Z,85.82
2023-02-03T00:35:39.310Z,84.85
2023-02-03T00:38:07.352Z,84.97
2023-02-03T00:40:35.095Z,84.86
2023-02-03T00:43:03.977Z,84.13
2023-02-03T00:45:31.517Z,84.63
2023-02-03T00:47:59.043Z,84.83
2023-02-03T00:50:27.424Z,85.99
2023-02-03T00:52:55.097Z,84.75
2023-02-03T00:55:22.558Z,84.93
2023-02-03T00:57:50.043Z,85.95
2023-02-03T01:00:19.932Z,84.72
2023-02-03T01:02:47.829Z,84.51
2023-02-03T01:05:15.384Z,85.24
2023-02-03T01:07:43.055Z,85.30
2023-02-03T01:10:11.681Z,84.57
2023-02-03T01:12:39.173Z,84.36
2023-02-03T01:15:07.460Z,85.36
2023-02-03T01:17:36.375Z,85.02
2023-02-03T01:20:04.725Z,86.24
2023-02-03T01:22:32.945Z,85.19
2023-02-03T01:25:00.511Z,85.55
2023-02-03T01:27:28.081Z,85.46
2023-02-03T01:29:55.648Z,85.48
2023-02-03T01:32:23.211Z,84.72
2023-02-03T01:34:52.112Z,85.47
2023-02-03T01:37:19.751Z,84.56
2023-02-03T01:39:47.436Z,84.50
2023-02-03T01:42:15.979Z,84.96
2023-02-03T01:44:45.936Z,85.00
2023-02-03T01:50:56.510Z,85.28
2023-02-03T01:53:24.092Z,83.98
2023-02-03T01:55:52.105Z,84.54
2023-02-03T01:58:24.735Z,84.39
2023-02-03T02:00:54.144Z,84.82
2023-02-03T02:03:25.995Z,84.09
2023-02-03T02:06:01.284Z,84.24
2023-02-03T02:08:29.129Z,85.13
2023-02-03T02:10:57.580Z,84.56
2023-02-03T02:13:25.663Z,83.88
2023-02-03T02:16:00.909Z,83.73
2023-02-03T02:18:36.874Z,84.35
2023-02-03T02:21:30.940Z,84.01
2023-02-03T02:24:26.100Z,83.44
2023-02-03T02:27:01.130Z,84.29
2023-02-03T02:30:13.220Z,84.30
2023-02-03T02:32:54.477Z,83.95
2023-02-03T02:35:33.297Z,83.54
2023-02-03T02:38:05.098Z,83.51
2023-02-03T02:40:37.194Z,84.26
2023-02-03T02:43:11.660Z,83.86
2023-02-03T02:45:47.079Z,84.25
2023-02-03T02:48:17.906Z,83.49
2023-02-03T02:50:48.743Z,83.38
2023-02-03T02:53:19.995Z,83.13
2023-02-03T02:55:48.051Z,83.53
2023-02-03T02:58:17.835Z,83.52
2023-02-03T03:00:46.419Z,84.08
2023-02-03T03:03:17.131Z,83.28
2023-02-03T03:05:49.695Z,83.08
2023-02-03T03:08:18.975Z,83.04
2023-02-03T03:10:47.820Z,82.60
2023-02-03T03:13:21.757Z,83.08
2023-02-03T03:15:51.397Z,82.83
2023-02-03T03:18:24.411Z,83.86
2023-02-03T03:20:54.207Z,83.17
2023-02-03T03:23:27.390Z,83.88
2023-02-03T03:25:58.692Z,83.42
2023-02-03T03:28:31.820Z,83.47
2023-02-03T03:30:59.488Z,83.63
2023-02-03T03:33:28.511Z,83.30
2023-02-03T03:36:02.229Z,82.23
2023-02-03T03:38:33.793Z,83.53
2023-02-03T03:41:07.552Z,82.81
2023-02-03T03:43:39.191Z,82.40
2023-02-03T03:46:13.591Z,81.91
2023-02-03T03:48:47.882Z,82.49
2023-02-03T03:51:19.866Z,82.04
2023-02-03T03:53:52.036Z,81.54
2023-02-03T03:56:25.304Z,81.68
2023-02-03T03:58:54.855Z,80.79
2023-02-03T04:01:24.635Z,81.76
2023-02-03T04:04:00.688Z,80.81
2023-02-03T04:06:28.211Z,81.10
2023-02-03T04:08:55.962Z,82.11
2023-02-03T04:11:41.262Z,81.59
2023-02-03T04:14:08.754Z,81.47
2023-02-03T04:16:36.178Z,81.59
2023-02-03T04:19:07.532Z,81.45
2023-02-03T04:21:35.803Z,82.10
2023-02-03T04:24:03.395Z,82.23
2023-02-03T04:26:30.973Z,81.13
2023-02-03T04:28:58.446Z,81.57
2023-02-03T04:31:26.019Z,82.04
2023-02-03T04:33:53.526Z,81.70
2023-02-03T04:36:22.517Z,82.25
2023-02-03T04:38:50.337Z,81.93
2023-02-03T04:41:17.901Z,82.63
2023-02-03T04:43:45.405Z,81.77
2023-02-03T04:46:13.134Z,80.62
2023-02-03T04:48:40.700Z,81.66
2023-02-03T04:51:09.399Z,82.29
2023-02-03T04:53:38.266Z,82.16
2023-02-03T04:56:06.527Z,81.73
2023-02-03T04:58:34.028Z,81.15
2023-02-03T05:01:07.947Z,81.36
2023-02-03T05:03:35.763Z,81.17
2023-02-03T05:06:04.181Z,82.15
2023-02-03T05:08:32.004Z,81.19
2023-02-03T05:11:02.265Z,81.85
2023-02-03T05:13:30.286Z,81.43
2023-02-03T05:15:57.809Z,81.05
2023-02-03T05:18:25.305Z,80.89
2023-02-03T05:20:52.799Z,80.67
2023-02-03T05:23:20.299Z,80.97
2023-02-03T05:25:47.779Z,80.19
2023-02-03T05:28:16.680Z,80.61
2023-02-03T05:30:44.261Z,80.16
2023-02-03T05:33:11.820Z,80.05
2023-02-03T05:35:39.492Z,81.24
2023-02-03T05:38:07.375Z,80.46
2023-02-03T05:40:48.876Z,81.43
2023-02-03T05:43:17.694Z,80.73
2023-02-03T05:45:45.318Z,80.64
2023-02-03T05:48:13.373Z,80.39
2023-02-03T05:50:41.075Z,81.09
2023-02-03T05:53:08.919Z,81.38
2023-02-03T05:55:37.632Z,80.86
2023-02-03T05:58:05.578Z,80.97
2023-02-03T06:00:34.488Z,80.69
2023-02-03T06:03:03.497Z,80.91
2023-02-03T06:05:32.090Z,80.56
2023-02-03T06:07:59.723Z,80.67
2023-02-03T06:10:28.238Z,80.44
2023-02-03T06:12:55.984Z,80.20
2023-02-03T06:15:23.536Z,80.16
2023-02-03T06:17:52.381Z,80.69
2023-02-03T06:20:21.112Z,80.19
2023-02-03T06:22:48.570Z,79.62
2023-02-03T06:25:16.122Z,80.73
2023-02-03T06:27:43.598Z,80.51
2023-02-03T06:30:12.621Z,81.08
2023-02-03T06:32:40.141Z,80.35
2023-02-03T06:35:09.784Z,80.34
2023-02-03T06:37:37.550Z,80.13
2023-02-03T06:40:05.880Z,80.73
2023-02-03T06:42:33.750Z,81.07
2023-02-03T06:45:01.242Z,79.95
2023-02-03T06:47:28.912Z,79.73
2023-02-03T06:49:56.397Z,80.11
2023-02-03T06:52:25.243Z,80.31
2023-02-03T06:54:52.727Z,80.63
2023-02-03T06:57:20.206Z,80.74
2023-02-03T06:59:47.686Z,81.32
2023-02-03T07:02:15.176Z,81.85
2023-02-03T07:04:44.933Z,80.88
2023-02-03T07:07:12.758Z,81.81
2023-02-03T07:09:41.878Z,82.27
2023-02-03T07:12:10.279Z,81.72
2023-02-03T07:14:39.296Z,82.15
2023-02-03T07:17:07.139Z,82.62
2023-02-03T07:19:34.709Z,83.72
2023-02-03T07:22:02.185Z,83.16
2023-02-03T07:24:29.606Z,82.73
2023-02-03T07:26:58.397Z,83.35
2023-02-03T07:29:25.864Z,83.69
2023-02-03T07:31:53.454Z,83.52
2023-02-03T07:34:21.014Z,83.60
2023-02-03T07:36:48.486Z,82.92
2023-02-03T07:39:15.919Z,82.29
2023-02-03T07:41:43.380Z,82.18
2023-02-03T07:44:12.210Z,82.11
2023-02-03T07:46:44.685Z,81.57
2023-02-03T07:49:12.415Z,81.70
2023-02-03T07:51:39.904Z,81.30
2023-02-03T07:54:07.858Z,81.74
2023-02-03T07:56:35.319Z,81.13
2023-02-03T07:59:03.614Z,81.69
2023-02-03T08:01:33.991Z,81.53
2023-02-03T08:04:05.278Z,80.84
2023-02-03T08:06:32.928Z,80.69
2023-02-03T08:09:00.408Z,80.96
2023-02-03T08:11:27.925Z,80.59
2023-02-03T08:13:55.399Z,80.55
2023-02-03T08:16:22.883Z,80.37
2023-02-03T08:18:51.699Z,80.11
2023-02-03T08:21:19.151Z,80.52
2023-02-03T08:23:46.664Z,80.72
2023-02-03T08:26:14.121Z,81.62
2023-02-03T08:28:41.669Z,82.42
2023-02-03T08:31:12.453Z,82.29
2023-02-03T08:33:40.039Z,82.87
2023-02-03T08:36:11.187Z,82.10
2023-02-03T08:38:39.124Z,82.29
2023-02-03T08:41:09.861Z,82.16
2023-02-03T08:43:37.349Z,82.33
2023-02-03T08:46:05.737Z,82.20
2023-02-03T08:48:33.462Z,82.37
2023-02-03T08:51:01.331Z,82.24
2023-02-03T08:53:30.211Z,82.43
2023-02-03T08:55:57.695Z,82.04
2023-02-03T08:58:25.146Z,82.42
2023-02-03T09:00:53.194Z,82.28
2023-02-03T09:03:20.946Z,82.20
2023-02-03T09:05:48.426Z,83.41
2023-02-03T09:08:15.861Z,82.56
2023-02-03T09:10:47.133Z,83.35
2023-02-03T09:13:14.574Z,82.62
2023-02-03T09:15:42.102Z,82.55
2023-02-03T09:18:09.668Z,82.11
2023-02-03T09:20:37.276Z,81.93
2023-02-03T09:23:04.848Z,82.79
2023-02-03T09:25:32.329Z,82.24
2023-02-03T09:28:02.260Z,83.42
2023-02-03T09:30:30.168Z,81.99
2023-02-03T09:32:58.825Z,82.37
2023-02-03T09:35:29.210Z,82.10
2023-02-03T09:37:56.673Z,82.91
2023-02-03T09:40:33.996Z,81.60
2023-02-03T09:43:30.096Z,82.23
2023-02-03T09:46:02.542Z,82.39
2023-02-03T09:48:38.464Z,82.61
2023-02-03T09:51:17.683Z,83.17
2023-02-03T09:53:49.753Z,82.67
2023-02-03T09:56:27.727Z,83.44
2023-02-03T09:58:56.887Z,82.41
2023-02-03T10:01:29.987Z,82.17
2023-02-03T10:04:02.050Z,83.61
2023-02-03T10:06:34.564Z,83.91
2023-02-03T10:09:21.579Z,82.89
2023-02-03T10:12:03.546Z,83.16
2023-02-03T10:14:47.012Z,83.33
2023-02-03T10:17:30.346Z,82.95
2023-02-03T10:20:02.357Z,82.94
2023-02-03T10:22:33.049Z,83.70
2023-02-03T10:25:04.257Z,83.77
2023-02-03T10:27:33.887Z,83.10
2023-02-03T10:30:07.529Z,83.78
2023-02-03T10:32:35.946Z,83.83
2023-02-03T10:35:03.444Z,84.30
2023-02-03T10:37:34.702Z,83.42
2023-02-03T10:40:03.116Z,83.81
2023-02-03T10:42:52.123Z,84.20
2023-02-03T10:45:21.881Z,83.78
2023-02-03T10:47:52.667Z,84.09
2023-02-03T10:50:22.335Z,83.56
2023-02-03T10:52:49.941Z,82.92
2023-02-03T10:55:31.062Z,83.72
2023-02-03T10:57:59.369Z,84.06
2023-02-03T11:00:31.816Z,84.45
2023-02-03T11:03:05.380Z,84.09
2023-02-03T11:05:32.925Z,83.29
2023-02-03T11:08:00.657Z,83.31
2023-02-03T11:10:30.714Z,84.23
2023-02-03T11:13:19.335Z,83.90
2023-02-03T11:15:55.862Z,84.22
2023-02-03T11:18:31.695Z,83.81
2023-02-03T11:20:59.729Z,83.78
2023-02-03T11:23:27.383Z,83.50
2023-02-03T11:25:54.974Z,83.30
2023-02-03T11:28:22.719Z,84.34
2023-02-03T11:30:58.960Z,83.72
2023-02-03T11:33:29.027Z,84.32
2023-02-03T11:35:59.119Z,84.68
2023-02-03T11:38:31.802Z,84.29
2023-02-03T11:41:02.408Z,84.35
2023-02-03T11:43:30.750Z,84.47
2023-02-03T11:46:07.710Z,84.24
2023-02-03T11:48:38.686Z,83.50
2023-02-03T11:51:19.172Z,84.05
2023-02-03T11:54:07.523Z,83.24
2023-02-03T11:56:54.989Z,84.12
2023-02-03T11:59:36.570Z,83.56
2023-02-03T12:02:33.047Z,83.26
2023-02-03T12:05:19.104Z,82.62
2023-02-03T12:08:01.626Z,83.44
2023-02-03T12:10:38.349Z,82.25
2023-02-03T12:13:21.067Z,82.37
2023-02-03T12:16:04.137Z,82.83
2023-02-03T12:18:53.722Z,82.84
2023-02-03T12:21:41.927Z,82.72
2023-02-03T12:24:21.089Z,82.63
2023-02-03T12:26:57.492Z,82.67
2023-02-03T12:29:31.621Z,81.81
2023-02-03T12:32:08.457Z,82.07
2023-02-03T12:34:41.750Z,82.50
2023-02-03T12:37:13.573Z,83.46
2023-02-03T12:39:50.928Z,83.84
2023-02-03T12:42:22.718Z,83.23
2023-02-03T12:44:53.586Z,83.38
2023-02-03T12:47:27.439Z,83.08
2023-02-03T12:49:58.984Z,83.42
2023-02-03T12:52:32.981Z,83.16
2023-02-03T12:55:21.272Z,83.37
2023-02-03T12:57:57.515Z,83.53
2023-02-03T13:00:35.559Z,83.84
2023-02-03T13:03:18.428Z,83.91
2023-02-03T13:05:52.401Z,83.40
2023-02-03T13:08:32.415Z,83.19
2023-02-03T13:11:09.682Z,82.74
2023-02-03T13:13:44.268Z,82.57
2023-02-03T13:16:14.853Z,82.54
2023-02-03T13:18:45.463Z,82.70
2023-02-03T13:21:14.431Z,82.68
2023-02-03T13:23:44.555Z,82.37
2023-02-03T13:26:49.534Z,82.57
2023-02-03T13:29:32.330Z,82.30
2023-02-03T13:32:11.789Z,81.96
2023-02-03T13:35:07.988Z,81.96
2023-02-03T13:37:45.325Z,82.04
2023-02-03T13:40:21.604Z,81.86
2023-02-03T13:42:55.509Z,82.60
2023-02-03T13:45:28.430Z,81.58
2023-02-03T13:47:57.981Z,82.08
2023-02-03T13:50:28.283Z,81.41
2023-02-03T13:53:04.064Z,81.58
2023-02-03T13:55:36.934Z,81.80
2023-02-03T13:58:07.692Z,81.18
2023-02-03T14:01:05.886Z,81.21
2023-02-03T14:03:46.170Z,81.01
2023-02-03T14:06:59.821Z,82.11
2023-02-03T14:09:40.791Z,82.65
2023-02-03T14:12:34.278Z,84.36
2023-02-03T14:15:17.328Z,83.10
2023-02-03T14:18:02.356Z,84.50
2023-02-03T14:20:57.027Z,84.96
2023-02-03T14:23:30.545Z,84.30
2023-02-03T14:26:01.658Z,86.51
2023-02-03T14:28:38.089Z,85.64
2023-02-03T14:31:17.551Z,86.64
2023-02-03T14:34:08.728Z,85.70
2023-02-03T14:36:40.950Z,85.85
2023-02-03T14:39:55.116Z,86.02
2023-02-03T14:42:44.181Z,85.72
2023-02-03T14:45:27.386Z,84.71
2023-02-03T14:48:05.840Z,83.68
2023-02-03T14:50:45.183Z,83.87
2023-02-03T14:53:26.623Z,83.33
2023-02-03T14:56:09.157Z,82.96
2023-02-03T14:58:48.096Z,82.86
2023-02-03T15:01:29.061Z,83.65
2023-02-03T15:04:22.562Z,82.54
2023-02-03T15:06:52.318Z,83.35
2023-02-03T15:09:26.926Z,84.46
2023-02-03T15:11:54.899Z,83.32
2023-02-03T15:14:26.057Z,83.38
2023-02-03T15:16:59.160Z,82.79
2023-02-03T15:19:29.541Z,82.13
2023-02-03T15:21:57.026Z,81.37
2023-02-03T15:24:26.038Z,82.54
2023-02-03T15:26:55.539Z,81.94
2023-02-03T15:29:31.534Z,82.10
2023-02-03T15:32:06.433Z,81.63
2023-02-03T15:34:39.383Z,81.98
2023-02-03T15:37:11.212Z,81.96
2023-02-03T15:39:46.388Z,82.07
2023-02-03T15:42:21.539Z,82.00
2023-02-03T15:44:56.237Z,81.45
2023-02-03T15:47:29.275Z,81.60
2023-02-03T15:50:05.464Z,80.51
2023-02-03T15:52:37.948Z,80.45
2023-02-03T15:55:17.961Z,80.04
2023-02-03T15:57:48.042Z,79.24
2023-02-03T16:00:31.289Z,80.05
2023-02-03T16:03:00.785Z,79.74
2023-02-03T16:05:32.189Z,79.25
2023-02-03T16:08:28.447Z,79.21
2023-02-03T16:10:56.248Z,80.24
2023-02-03T16:13:26.130Z,80.42
2023-02-03T16:16:05.710Z,81.01
2023-02-03T16:18:35.790Z,80.66
2023-02-03T16:21:03.598Z,80.54
2023-02-03T16:23:31.080Z,80.50
2023-02-03T16:26:18.357Z,80.48
2023-02-03T16:29:14.286Z,79.98
2023-02-03T16:32:04.677Z,80.66
2023-02-03T16:34:50.190Z,80.13
2023-02-03T16:37:42.797Z,79.61
2023-02-03T16:40:28.833Z,80.32
2023-02-03T16:43:14.196Z,80.48
2023-02-03T16:45:59.734Z,80.12
2023-02-03T16:48:46.426Z,80.24
2023-02-03T16:51:17.333Z,80.36
2023-02-03T16:53:48.059Z,80.61
2023-02-03T16:56:18.489Z,80.59
2023-02-03T16:58:46.171Z,80.05
2023-02-03T17:01:13.965Z,79.67
2023-02-03T17:03:44.281Z,79.05
2023-02-03T17:06:13.577Z,78.95
2023-02-03T17:08:42.215Z,78.58
2023-02-03T17:11:15.267Z,78.81
2023-02-03T17:13:43.416Z,77.96
2023-02-03T17:16:13.245Z,77.33
2023-02-03T17:18:40.988Z,77.09
2023-02-03T17:21:12.131Z,77.10
2023-02-03T17:23:40.036Z,76.75
2023-02-03T17:26:08.371Z,77.06
2023-02-03T17:28:36.378Z,76.47
2023-02-03T17:31:06.282Z,77.29
2023-02-03T17:33:35.395Z,76.35
2023-02-03T17:36:05.912Z,77.29
2023-02-03T17:55:16.127Z,76.64
2023-02-03T17:57:43.572Z,76.36
2023-02-03T18:00:12.293Z,76.43
2023-02-03T18:02:39.870Z,76.00
2023-02-03T18:05:08.203Z,76.29
2023-02-03T18:07:35.995Z,76.69
2023-02-03T18:10:03.449Z,75.99
2023-02-03T18:12:32.301Z,76.38
2023-02-03T18:14:59.757Z,77.31
2023-02-03T18:17:27.367Z,77.82
2023-02-03T18:19:56.235Z,77.24
2023-02-03T18:22:24.978Z,77.28
2023-02-03T18:24:52.617Z,77.67
2023-02-03T18:27:20.500Z,77.99
2023-02-03T18:29:49.429Z,77.78
2023-02-03T18:32:17.188Z,77.77
2023-02-03T18:34:45.026Z,77.54
2023-02-03T18:37:12.672Z,77.19
2023-02-03T18:39:40.126Z,76.87
2023-02-03T18:42:08.047Z,77.16
2023-02-03T18:44:35.537Z,77.99
2023-02-03T18:47:07.564Z,77.48
2023-02-03T18:49:36.683Z,77.26
2023-02-03T18:52:05.261Z,76.97
2023-02-03T18:54:33.098Z,77.54
2023-02-03T18:57:02.616Z,78.16
2023-02-03T18:59:30.074Z,77.39
2023-02-03T19:01:57.548Z,77.54
2023-02-03T19:04:26.486Z,77.67
2023-02-03T19:06:53.944Z,77.59
2023-02-03T19:09:23.482Z,77.06
2023-02-03T19:11:50.959Z,77.27
2023-02-03T19:14:18.509Z,78.12
2023-02-03T19:16:45.979Z,77.18
2023-02-03T19:19:14.785Z,78.64
2023-02-03T19:21:43.909Z,77.68
2023-02-03T19:24:13.301Z,78.21
2023-02-03T19:26:40.824Z,78.12
2023-02-03T19:29:08.526Z,77.21
2023-02-03T19:31:36.511Z,76.65
2023-02-03T19:34:05.682Z,77.53
2023-02-03T19:36:33.160Z,76.95
2023-02-03T19:39:01.955Z,76.56
2023-02-03T19:41:30.825Z,77.34
2023-02-03T19:43:58.310Z,76.91
2023-02-03T19:46:27.166Z,77.23
2023-02-03T19:48:54.655Z,76.42
2023-02-03T19:51:22.191Z,76.02
2023-02-03T19:53:49.657Z,75.83
2023-02-03T19:56:18.474Z,75.63
2023-02-03T19:58:51.836Z,74.93
2023-02-03T20:01:19.501Z,76.15
2023-02-03T20:03:47.388Z,74.93
2023-02-03T20:06:15.199Z,75.62
2023-02-03T20:08:42.688Z,75.31
2023-02-03T20:11:10.286Z,75.58
2023-02-03T20:13:40.513Z,75.65
2023-02-03T20:16:08.035Z,76.02
2023-02-03T20:18:35.517Z,76.36
2023-02-03T20:21:03.037Z,75.86
2023-02-03T20:23:30.790Z,76.29
2023-02-03T20:25:58.353Z,75.55
2023-02-03T20:28:28.336Z,75.60
2023-02-03T20:30:59.559Z,74.75
2023-02-03T20:33:29.190Z,75.52
2023-02-03T20:35:57.256Z,75.88
2023-02-03T20:38:25.189Z,75.60
2023-02-03T20:40:52.674Z,75.25
2023-02-03T20:43:22.333Z,74.42
2023-02-03T20:45:51.395Z,74.15
2023-02-03T20:48:22.252Z,74.65
2023-02-03T20:50:50.405Z,74.13
2023-02-03T20:53:19.943Z,74.55
2023-02-03T20:55:48.233Z,72.93
2023-02-03T20:58:18.684Z,73.52
2023-02-03T21:00:47.156Z,72.96
2023-02-03T21:03:33.723Z,72.56
2023-02-03T21:06:03.298Z,72.16
2023-02-03T21:08:30.931Z,72.61
2023-02-03T21:10:58.418Z,72.85
2023-02-03T21:13:28.267Z,73.46
2023-02-03T21:15:59.210Z,73.50
2023-02-03T21:18:33.772Z,72.50
2023-02-03T21:21:02.842Z,72.46
2023-02-03T21:23:38.539Z,71.46
2023-02-03T21:26:16.693Z,71.39
2023-02-03T21:28:44.180Z,72.05
2023-02-03T21:31:20.260Z,70.86
2023-02-03T21:33:47.842Z,71.08
2023-02-03T21:36:18.142Z,71.69
2023-02-03T21:38:47.191Z,71.48
2023-02-03T21:41:18.066Z,70.29
2023-02-03T21:43:47.121Z,71.26
2023-02-03T21:46:19.072Z,70.84
2023-02-03T21:48:50.592Z,71.19
2023-02-03T21:51:22.558Z,70.84
2023-02-03T21:53:56.142Z,71.81
2023-02-03T21:56:26.212Z,71.65
2023-02-03T21:58:57.455Z,71.38
2023-02-03T22:01:26.081Z,71.76
2023-02-03T22:03:54.618Z,71.45
2023-02-03T22:06:26.823Z,71.75
2023-02-03T22:08:55.968Z,70.94
2023-02-03T22:11:25.358Z,71.34
2023-02-03T22:13:53.170Z,71.26
2023-02-03T22:16:20.858Z,70.95
2023-02-03T22:18:51.745Z,71.70
2023-02-03T22:21:19.932Z,70.48
2023-02-03T22:23:49.356Z,70.47
2023-02-03T22:26:17.753Z,70.07
2023-02-03T22:28:45.774Z,71.49
2023-02-03T22:31:14.301Z,70.23
2023-02-03T22:33:42.518Z,70.83
2023-02-03T22:36:11.124Z,70.95
2023-02-03T22:38:40.040Z,70.32
2023-02-03T22:41:11.673Z,70.99
2023-02-03T22:43:39.271Z,70.16
2023-02-03T22:46:07.027Z,70.05
2023-02-03T22:48:34.758Z,70.18
2023-02-03T22:51:02.508Z,69.49
2023-02-03T22:53:30.530Z,69.76
2023-02-03T22:55:58.105Z,70.07
2023-02-03T22:58:26.984Z,69.62
2023-02-03T23:00:54.673Z,69.85
2023-02-03T23:03:22.298Z,68.92
2023-02-03T23:05:50.058Z,69.99
2023-02-03T23:08:17.534Z,69.89
2023-02-03T23:10:45.034Z,69.23
2023-02-03T23:13:12.534Z,69.54
2023-02-03T23:15:41.362Z,70.10
2023-02-03T23:18:08.902Z,69.12
2023-02-03T23:20:36.375Z,69.65
2023-02-03T23:23:03.870Z,69.58
2023-02-03T23:25:31.365Z,69.75
2023-02-03T23:27:58.912Z,69.44
2023-02-03T23:30:26.406Z,69.11
2023-02-03T23:32:55.284Z,70.14
2023-02-03T23:35:40.268Z,69.04
2023-02-03T23:38:07.901Z,69.52
2023-02-03T23:40:35.379Z,68.85
2023-02-03T23:43:03.036Z,68.73
2023-02-03T23:45:30.609Z,69.17
2023-02-03T23:47:59.471Z,69.56
2023-02-03T23:50:26.990Z,68.64
2023-02-03T23:52:54.459Z,69.12
2023-02-03T23:55:23.576Z,68.92
2023-02-03T23:57:51.616Z,68.93
